createdAt,value
2023-05-12T00:02:04.766Z,9
2023-05-12T00:04:35.359Z,15
2023-05-12T00:07:06.085Z,16
2023-05-12T00:09:36.649Z,13
2023-05-12T00:12:07.973Z,12
2023-05-12T00:14:38.720Z,19
2023-05-12T00:17:12.331Z,12
2023-05-12T00:19:43.384Z,18
2023-05-12T00:22:14.175Z,15
2023-05-12T00:24:44.914Z,15
2023-05-12T00:27:15.355Z,12
2023-05-12T00:29:45.958Z,12
2023-05-12T00:32:23.199Z,10
2023-05-12T00:34:53.908Z,12
2023-05-12T00:37:24.627Z,12
2023-05-12T00:39:55.138Z,16
2023-05-12T00:42:26.615Z,16
2023-05-12T00:44:57.853Z,16
2023-05-12T00:47:28.630Z,13
2023-05-12T00:49:59.112Z,12
2023-05-12T00:52:29.955Z,12
2023-05-12T00:55:01.121Z,13
2023-05-12T00:57:35.138Z,12
2023-05-12T01:00:12.154Z,12
2023-05-12T01:02:48.361Z,9
2023-05-12T01:05:26.174Z,12
2023-05-12T01:07:58.170Z,12
2023-05-12T01:10:29.297Z,12
2023-05-12T01:13:02.640Z,12
2023-05-12T01:15:33.842Z,11
2023-05-12T01:18:09.364Z,12
2023-05-12T01:20:41.050Z,12
2023-05-12T01:23:11.378Z,15
2023-05-12T01:25:48.015Z,15
2023-05-12T01:28:19.387Z,12
2023-05-12T01:30:50.211Z,12
2023-05-12T01:33:21.370Z,16
2023-05-12T01:35:52.251Z,12
2023-05-12T01:38:23.007Z,12
2023-05-12T01:40:53.630Z,12
2023-05-12T01:43:23.861Z,13
2023-05-12T01:45:54.943Z,12
2023-05-12T01:48:26.158Z,15
2023-05-12T01:50:56.853Z,12
2023-05-12T01:53:27.619Z,15
2023-05-12T01:55:58.380Z,15
2023-05-12T01:58:28.936Z,13
2023-05-12T02:01:00.709Z,13
2023-05-12T02:03:32.002Z,12
2023-05-12T02:06:03.134Z,16
2023-05-12T02:08:34.374Z,12
2023-05-12T02:11:05.491Z,16
2023-05-12T02:13:36.459Z,15
2023-05-12T02:16:07.676Z,15
2023-05-12T02:18:39.859Z,10
2023-05-12T02:21:10.624Z,11
2023-05-12T02:23:41.513Z,15
2023-05-12T02:26:12.599Z,12
2023-05-12T02:28:43.445Z,12
2023-05-12T02:31:14.046Z,13
2023-05-12T02:33:44.976Z,13
2023-05-12T02:36:16.242Z,15
2023-05-12T02:38:47.006Z,15
2023-05-12T02:41:17.059Z,16
2023-05-12T02:43:48.662Z,16
2023-05-12T02:46:19.878Z,15
2023-05-12T02:48:50.508Z,13
2023-05-12T02:51:21.814Z,16
2023-05-12T02:53:52.586Z,12
2023-05-12T02:56:22.975Z,16
2023-05-12T02:58:53.833Z,12
2023-05-12T03:01:24.651Z,15
2023-05-12T03:03:55.420Z,13
2023-05-12T03:06:24.652Z,15
2023-05-12T03:08:55.641Z,17
2023-05-12T03:11:26.199Z,13
2023-05-12T03:13:57.334Z,15
2023-05-12T03:16:28.326Z,13
2023-05-12T03:18:59.040Z,12
2023-05-12T03:21:30.941Z,14
2023-05-12T03:24:02.268Z,11
2023-05-12T03:26:33.431Z,12
2023-05-12T03:29:04.490Z,16
2023-05-12T03:31:35.440Z,13
2023-05-12T03:34:06.545Z,12
2023-05-12T03:36:38.242Z,16
2023-05-12T03:39:09.107Z,12
2023-05-12T03:41:40.282Z,17
2023-05-12T03:44:10.716Z,12
2023-05-12T03:46:41.949Z,19
2023-05-12T03:49:12.488Z,13
2023-05-12T03:51:43.604Z,15
2023-05-12T03:54:15.629Z,13
2023-05-12T03:56:46.636Z,16
2023-05-12T03:59:17.688Z,14
2023-05-12T04:01:48.836Z,15
2023-05-12T04:04:19.691Z,13
2023-05-12T04:06:51.042Z,22
2023-05-12T04:09:21.867Z,13
2023-05-12T04:11:55.225Z,20
2023-05-12T04:14:32.073Z,22
2023-05-12T04:16:56.288Z,15
2023-05-12T04:19:27.563Z,16
2023-05-12T04:21:58.409Z,12
2023-05-12T04:24:29.576Z,17
2023-05-12T04:27:00.602Z,16
2023-05-12T04:29:31.368Z,19
2023-05-12T04:32:02.422Z,17
2023-05-12T04:34:33.354Z,19
2023-05-12T04:37:04.207Z,23
2023-05-12T04:39:35.626Z,18
2023-05-12T04:42:07.188Z,16
2023-05-12T04:44:38.093Z,15
2023-05-12T04:47:12.270Z,16
2023-05-12T04:49:43.306Z,20
2023-05-12T04:52:14.190Z,16
2023-05-12T04:54:45.473Z,17
2023-05-12T04:57:15.747Z,15
2023-05-12T04:59:47.193Z,13
2023-05-12T05:02:17.861Z,15
2023-05-12T05:04:48.490Z,20
2023-05-12T05:07:19.424Z,17
2023-05-12T05:09:51.046Z,18
2023-05-12T05:12:21.885Z,21
2023-05-12T05:14:52.849Z,17
2023-05-12T05:17:23.807Z,16
2023-05-12T05:19:58.066Z,19
2023-05-12T05:22:25.841Z,30
2023-05-12T05:24:56.496Z,14
2023-05-12T05:27:27.676Z,20
2023-05-12T05:29:59.187Z,20
2023-05-12T05:32:31.212Z,16
2023-05-12T05:35:01.398Z,15
2023-05-12T05:37:32.243Z,17
2023-05-12T05:40:03.082Z,21
2023-05-12T05:42:33.807Z,16
2023-05-12T05:45:04.280Z,13
2023-05-12T05:47:34.872Z,19
2023-05-12T05:50:05.569Z,20
2023-05-12T05:52:36.280Z,23
2023-05-12T05:55:07.606Z,18
2023-05-12T05:57:38.493Z,20
2023-05-12T06:00:09.659Z,21
2023-05-12T06:02:40.694Z,20
2023-05-12T06:05:10.512Z,24
2023-05-12T06:07:41.804Z,19
2023-05-12T06:10:18.975Z,14
2023-05-12T06:12:57.780Z,15
2023-05-12T06:15:28.237Z,21
2023-05-12T06:17:58.873Z,19
2023-05-12T06:20:36.528Z,16
2023-05-12T06:23:06.769Z,16
2023-05-12T06:25:38.379Z,14
2023-05-12T06:28:08.399Z,19
2023-05-12T06:30:38.891Z,19
2023-05-12T06:33:09.214Z,23
2023-05-12T06:35:39.952Z,24
2023-05-12T06:38:10.400Z,17
2023-05-12T06:40:41.250Z,25
2023-05-12T06:43:11.773Z,20
2023-05-12T06:45:41.925Z,21
2023-05-12T06:48:12.559Z,23
2023-05-12T06:50:43.218Z,27
2023-05-12T06:53:13.399Z,25
2023-05-12T06:55:44.119Z,24
2023-05-12T06:58:14.829Z,20
2023-05-12T07:00:45.421Z,16
2023-05-12T07:03:16.126Z,17
2023-05-12T07:05:46.569Z,23
2023-05-12T07:08:16.823Z,24
2023-05-12T07:10:47.568Z,22
2023-05-12T07:13:18.367Z,21
2023-05-12T07:15:48.902Z,25
2023-05-12T07:18:20.000Z,20
2023-05-12T07:20:51.200Z,24
2023-05-12T07:23:22.918Z,20
2023-05-12T07:25:51.893Z,28
2023-05-12T07:28:22.216Z,16
2023-05-12T07:30:52.926Z,21
2023-05-12T07:33:23.410Z,23
2023-05-12T07:35:54.598Z,16
2023-05-12T07:38:25.006Z,23
2023-05-12T07:40:55.642Z,18
2023-05-12T07:43:27.173Z,21
2023-05-12T07:45:57.681Z,28
2023-05-12T07:48:28.291Z,24
2023-05-12T07:50:58.653Z,23
2023-05-12T07:53:29.011Z,26
2023-05-12T07:55:59.222Z,20
2023-05-12T07:58:29.893Z,20
2023-05-12T08:01:00.470Z,23
2023-05-12T08:03:30.550Z,23
2023-05-12T08:06:01.025Z,27
2023-05-12T08:08:31.754Z,21
2023-05-12T08:11:02.034Z,21
2023-05-12T08:13:32.785Z,28
2023-05-12T08:16:03.449Z,19
2023-05-12T08:18:38.160Z,24
2023-05-12T08:21:08.724Z,21
2023-05-12T08:23:39.395Z,16
2023-05-12T08:26:09.837Z,25
2023-05-12T08:28:40.203Z,20
2023-05-12T08:31:14.668Z,20
2023-05-12T08:33:45.052Z,24
2023-05-12T08:36:15.854Z,20
2023-05-12T08:41:26.248Z,24
2023-05-12T08:44:02.241Z,18
2023-05-12T08:46:31.663Z,22
2023-05-12T08:49:05.466Z,16
2023-05-12T08:51:35.989Z,23
2023-05-12T08:54:12.644Z,21
2023-05-12T08:59:13.432Z,21
2023-05-12T09:01:43.877Z,23
2023-05-12T09:04:14.360Z,21
2023-05-12T09:06:44.632Z,21
2023-05-12T09:09:14.788Z,21
2023-05-12T09:11:44.964Z,19
2023-05-12T09:14:15.612Z,20
2023-05-12T09:16:46.201Z,17
2023-05-12T09:19:16.961Z,24
2023-05-12T09:21:51.029Z,20
2023-05-12T09:24:21.541Z,17
2023-05-12T09:26:51.949Z,17
2023-05-12T09:32:02.131Z,18
2023-05-12T09:34:32.449Z,13
2023-05-12T09:37:02.455Z,16
2023-05-12T09:39:32.815Z,21
2023-05-12T09:42:03.287Z,23
2023-05-12T09:44:33.694Z,21
2023-05-12T09:47:04.146Z,17
2023-05-12T09:49:34.243Z,15
2023-05-12T09:52:04.359Z,20
2023-05-12T09:54:34.872Z,19
2023-05-12T09:57:05.518Z,16
2023-05-12T09:59:35.521Z,21
2023-05-12T10:02:09.158Z,22
2023-05-12T10:04:39.371Z,20
2023-05-12T10:09:43.197Z,13
2023-05-12T10:12:13.209Z,17
2023-05-12T10:14:44.494Z,16
2023-05-12T10:17:20.649Z,16
2023-05-12T10:20:03.720Z,25
2023-05-12T10:30:31.565Z,18
2023-05-12T10:33:11.658Z,19
2023-05-12T10:35:59.293Z,20
2023-05-12T10:38:28.805Z,14
2023-05-12T10:40:59.027Z,20
2023-05-12T10:43:30.424Z,29
2023-05-12T10:46:01.554Z,18
2023-05-12T10:48:31.412Z,24
2023-05-12T10:51:09.026Z,20
2023-05-12T10:53:49.976Z,10
2023-05-12T10:56:13.123Z,19
2023-05-12T10:58:43.295Z,19
2023-05-12T11:01:13.463Z,13
2023-05-12T11:03:43.809Z,22
2023-05-12T11:06:14.045Z,27
2023-05-12T11:08:44.288Z,15
2023-05-12T11:11:15.930Z,15
2023-05-12T11:13:45.627Z,13
2023-05-12T11:16:15.516Z,15
2023-05-12T11:18:46.918Z,13
2023-05-12T11:21:18.514Z,15
2023-05-12T11:23:48.572Z,16
2023-05-12T11:26:19.022Z,15
2023-05-12T11:28:50.042Z,16
2023-05-12T11:31:20.211Z,13
2023-05-12T11:34:11.225Z,10
2023-05-12T11:36:38.001Z,10
2023-05-12T11:39:12.548Z,10
2023-05-12T11:41:42.437Z,13
2023-05-12T11:44:12.499Z,19
2023-05-12T11:49:18.086Z,19
2023-05-12T11:51:48.265Z,23
2023-05-12T11:54:19.150Z,18
2023-05-12T11:56:49.271Z,20
2023-05-12T11:59:19.678Z,16
2023-05-12T12:01:49.858Z,15
2023-05-12T12:04:24.831Z,19
2023-05-12T12:06:59.593Z,16
2023-05-12T12:09:30.920Z,16
2023-05-12T12:12:04.334Z,17
2023-05-12T12:14:39.632Z,16
2023-05-12T12:17:14.512Z,12
2023-05-12T12:19:44.750Z,16
2023-05-12T12:22:15.178Z,16
2023-05-12T12:24:49.085Z,21
2023-05-12T12:27:19.329Z,17
2023-05-12T12:29:49.163Z,17
2023-05-12T12:32:19.778Z,17
2023-05-12T12:34:50.218Z,16
2023-05-12T12:37:20.685Z,17
2023-05-12T12:39:50.984Z,16
2023-05-12T12:42:23.515Z,15
2023-05-12T12:44:53.560Z,15
2023-05-12T12:47:23.466Z,20
2023-05-12T12:49:53.688Z,16
2023-05-12T12:52:24.089Z,16
2023-05-12T12:54:54.268Z,16
2023-05-12T12:57:29.708Z,19
2023-05-12T13:00:00.247Z,23
2023-05-12T13:02:30.488Z,17
2023-05-12T13:05:01.008Z,13
2023-05-12T13:07:34.919Z,19
2023-05-12T13:10:05.630Z,16
2023-05-12T13:12:36.703Z,23
2023-05-12T13:15:06.301Z,20
2023-05-12T13:17:38.074Z,20
2023-05-12T13:20:08.388Z,20
2023-05-12T13:22:38.978Z,17
2023-05-12T13:25:09.722Z,21
2023-05-12T13:27:40.536Z,16
2023-05-12T13:30:17.298Z,26
2023-05-12T13:32:47.830Z,17
2023-05-12T13:35:22.519Z,16
2023-05-12T13:37:53.580Z,32
2023-05-12T13:40:23.768Z,21
2023-05-12T13:42:54.515Z,20
2023-05-12T13:45:24.989Z,33
2023-05-12T13:47:55.022Z,25
2023-05-12T13:50:27.647Z,25
2023-05-12T13:52:58.141Z,23
2023-05-12T13:55:28.679Z,21
2023-05-12T13:57:59.202Z,19
2023-05-12T14:00:29.831Z,23
2023-05-12T14:03:00.705Z,25
2023-05-12T14:05:32.504Z,18
2023-05-12T14:08:02.921Z,27
2023-05-12T14:10:33.439Z,24
2023-05-12T14:13:04.595Z,25
2023-05-12T14:15:44.604Z,26
2023-05-12T14:18:09.919Z,28
2023-05-12T14:20:40.395Z,25
2023-05-12T14:23:11.340Z,23
2023-05-12T14:25:41.991Z,23
2023-05-12T14:28:12.442Z,31
2023-05-12T14:30:49.713Z,22
2023-05-12T14:33:20.510Z,24
2023-05-12T14:35:59.631Z,31
2023-05-12T14:38:21.982Z,31
2023-05-12T14:40:52.226Z,30
2023-05-12T14:43:23.834Z,25
2023-05-12T14:45:54.354Z,28
2023-05-12T14:48:24.320Z,25
2023-05-12T14:50:54.646Z,29
2023-05-12T14:53:24.763Z,21
2023-05-12T14:55:54.656Z,33
2023-05-12T14:58:24.568Z,28
2023-05-12T15:00:56.164Z,21
2023-05-12T15:03:26.651Z,27
2023-05-12T15:06:05.413Z,24
2023-05-12T15:08:26.982Z,27
2023-05-12T15:11:08.760Z,26
2023-05-12T15:13:38.267Z,32
2023-05-12T15:16:08.674Z,32
2023-05-12T15:18:39.052Z,23
2023-05-12T15:21:10.607Z,30
2023-05-12T15:23:41.087Z,64
2023-05-12T15:26:32.568Z,68
2023-05-12T15:28:53.583Z,43
2023-05-12T15:31:26.989Z,41
2023-05-12T15:33:57.450Z,31
2023-05-12T15:36:27.596Z,43
2023-05-12T15:38:58.823Z,28
2023-05-12T15:41:28.852Z,28
2023-05-12T15:43:58.892Z,32
2023-05-12T15:46:29.534Z,29
2023-05-12T15:49:01.880Z,32
2023-05-12T15:51:32.541Z,28
2023-05-12T15:54:03.433Z,28
2023-05-12T15:56:33.846Z,32
2023-05-12T15:59:05.531Z,28
2023-05-12T16:01:35.858Z,24
2023-05-12T16:04:07.073Z,24
2023-05-12T16:06:37.275Z,40
2023-05-12T16:09:08.855Z,28
2023-05-12T16:11:39.002Z,28
2023-05-12T16:14:09.448Z,29
2023-05-12T16:16:39.895Z,31
2023-05-12T16:19:10.595Z,27
2023-05-12T16:21:40.855Z,28
2023-05-12T16:24:11.590Z,31
2023-05-12T16:26:41.926Z,35
2023-05-12T16:29:12.253Z,28
2023-05-12T16:31:46.909Z,24
2023-05-12T16:34:17.997Z,28
2023-05-12T16:36:53.127Z,36
2023-05-12T16:39:24.682Z,31
2023-05-12T16:41:58.412Z,24
2023-05-12T16:44:34.041Z,30
2023-05-12T16:47:07.338Z,28
2023-05-12T16:49:39.161Z,30
2023-05-12T16:52:12.554Z,22
2023-05-12T16:54:45.687Z,31
2023-05-12T16:57:17.634Z,30
2023-05-12T16:59:49.711Z,32
2023-05-12T17:02:23.784Z,29
2023-05-12T17:04:56.644Z,35
2023-05-12T17:07:29.998Z,27
2023-05-12T17:10:02.639Z,20
2023-05-12T17:12:34.643Z,38
2023-05-12T17:15:07.851Z,36
2023-05-12T17:17:39.115Z,30
2023-05-12T17:20:10.841Z,31
2023-05-12T17:22:42.900Z,26
2023-05-12T17:25:14.910Z,26
2023-05-12T17:27:47.439Z,24
2023-05-12T17:30:19.403Z,28
2023-05-12T17:32:49.942Z,35
2023-05-12T17:35:22.049Z,28
2023-05-12T17:37:56.646Z,35
2023-05-12T17:40:28.818Z,26
2023-05-12T17:43:01.470Z,32
2023-05-12T17:45:31.922Z,36
2023-05-12T17:48:03.776Z,37
2023-05-12T17:50:37.358Z,30
2023-05-12T17:53:09.953Z,32
2023-05-12T17:55:44.936Z,36
2023-05-12T17:58:15.554Z,35
2023-05-12T18:00:48.922Z,42
2023-05-12T18:03:24.134Z,24
2023-05-12T18:05:54.054Z,28
2023-05-12T18:08:26.277Z,39
2023-05-12T18:10:58.436Z,31
2023-05-12T18:13:29.161Z,38
2023-05-12T18:15:59.407Z,33
2023-05-12T18:18:29.952Z,29
2023-05-12T18:21:01.260Z,36
2023-05-12T18:23:35.021Z,33
2023-05-12T18:26:15.797Z,33
2023-05-12T18:28:51.613Z,32
2023-05-12T18:31:25.132Z,32
2023-05-12T18:33:55.562Z,34
2023-05-12T18:36:27.937Z,39
2023-05-12T18:38:59.366Z,37
2023-05-12T18:41:29.954Z,28
2023-05-12T18:44:00.238Z,32
2023-05-12T18:46:32.912Z,34
2023-05-12T18:49:03.390Z,32
2023-05-12T18:51:37.620Z,35
2023-05-12T18:54:22.139Z,32
2023-05-12T18:56:59.113Z,30
2023-05-12T18:59:29.952Z,37
2023-05-12T19:02:00.497Z,35
2023-05-12T19:04:32.724Z,50
2023-05-12T19:07:03.486Z,45
2023-05-12T19:09:41.061Z,38
2023-05-12T19:12:12.194Z,40
2023-05-12T19:14:43.035Z,29
2023-05-12T19:17:13.356Z,32
2023-05-12T19:19:43.587Z,36
2023-05-12T19:22:14.894Z,44
2023-05-12T19:24:47.015Z,36
2023-05-12T19:27:17.939Z,40
2023-05-12T19:29:50.204Z,38
2023-05-12T19:32:19.053Z,44
2023-05-12T19:34:49.791Z,37
2023-05-12T19:37:21.748Z,40
2023-05-12T19:39:58.489Z,45
2023-05-12T19:42:29.594Z,40
2023-05-12T19:45:00.418Z,41
2023-05-12T19:47:31.852Z,40
2023-05-12T19:50:06.933Z,45
2023-05-12T19:52:43.885Z,42
2023-05-12T19:55:15.010Z,35
2023-05-12T19:57:47.132Z,38
2023-05-12T20:00:23.389Z,36
2023-05-12T20:02:55.159Z,35
2023-05-12T20:05:25.874Z,42
2023-05-12T20:07:57.621Z,36
2023-05-12T20:10:28.582Z,34
2023-05-12T20:13:00.670Z,40
2023-05-12T20:15:35.114Z,35
2023-05-12T20:18:05.407Z,35
2023-05-12T20:20:37.575Z,38
2023-05-12T20:23:11.865Z,30
2023-05-12T20:25:43.470Z,33
2023-05-12T20:28:20.078Z,32
2023-05-12T20:30:50.167Z,33
2023-05-12T20:33:20.875Z,35
2023-05-12T20:35:50.364Z,37
2023-05-12T20:38:20.832Z,45
2023-05-12T20:40:58.161Z,46
2023-05-12T20:43:28.338Z,43
2023-05-12T20:45:58.731Z,32
2023-05-12T20:48:29.348Z,36
2023-05-12T20:51:00.134Z,29
2023-05-12T20:53:32.240Z,32
2023-05-12T20:56:06.462Z,34
2023-05-12T20:58:35.358Z,33
2023-05-12T21:01:06.637Z,31
2023-05-12T21:03:37.326Z,37
2023-05-12T21:06:07.524Z,33
2023-05-12T21:08:39.962Z,32
2023-05-12T21:11:11.457Z,42
2023-05-12T21:13:41.662Z,37
2023-05-12T21:16:12.033Z,37
2023-05-12T21:18:51.744Z,33
2023-05-12T21:21:23.756Z,36
2023-05-12T21:23:54.103Z,39
2023-05-12T21:26:27.200Z,39
2023-05-12T21:29:00.493Z,37
2023-05-12T21:31:31.137Z,37
2023-05-12T21:34:01.398Z,35
2023-05-12T21:36:32.611Z,35
2023-05-12T21:39:03.228Z,38
2023-05-12T21:41:34.195Z,40
2023-05-12T21:44:08.189Z,36
2023-05-12T21:46:40.848Z,47
2023-05-12T21:49:13.837Z,42
2023-05-12T21:51:47.034Z,40
2023-05-12T21:54:17.893Z,46
2023-05-12T21:56:51.917Z,36
2023-05-12T21:59:22.697Z,40
2023-05-12T22:01:53.376Z,40
2023-05-12T22:04:29.031Z,39
2023-05-12T22:06:59.973Z,37
2023-05-12T22:09:33.347Z,40
2023-05-12T22:12:03.486Z,44
2023-05-12T22:14:40.718Z,39
2023-05-12T22:17:10.806Z,37
2023-05-12T22:19:40.094Z,32
2023-05-12T22:22:10.635Z,40
2023-05-12T22:24:40.748Z,40
2023-05-12T22:27:10.784Z,41
2023-05-12T22:29:45.754Z,34
2023-05-12T22:32:16.237Z,37
2023-05-12T22:34:46.613Z,40
2023-05-12T22:37:16.487Z,41
2023-05-12T22:39:47.498Z,36
2023-05-12T22:42:18.133Z,35
2023-05-12T22:44:48.027Z,45
2023-05-12T22:47:18.495Z,35
2023-05-12T22:49:49.019Z,33
2023-05-12T22:52:19.615Z,41
2023-05-12T22:54:50.022Z,36
2023-05-12T22:57:20.589Z,36
2023-05-12T22:59:55.030Z,32
2023-05-12T23:02:34.396Z,33
2023-05-12T23:05:05.193Z,32
2023-05-12T23:07:35.768Z,36
2023-05-12T23:10:10.331Z,38
2023-05-12T23:12:41.169Z,35
2023-05-12T23:15:11.621Z,33
2023-05-12T23:17:43.698Z,32
2023-05-12T23:20:14.162Z,27
2023-05-12T23:22:44.659Z,31
2023-05-12T23:25:15.244Z,28
2023-05-12T23:27:45.447Z,27
2023-05-12T23:30:16.067Z,28
2023-05-12T23:32:46.591Z,36
2023-05-12T23:35:16.919Z,32
2023-05-12T23:37:47.273Z,30
2023-05-12T23:40:19.859Z,25
2023-05-12T23:42:50.483Z,33
2023-05-12T23:45:21.588Z,30
2023-05-12T23:47:52.132Z,36
2023-05-12T23:50:23.236Z,32
2023-05-12T23:52:53.227Z,32
2023-05-12T23:55:24.100Z,31
2023-05-12T23:57:54.294Z,28
